Pagina principale
METAR-TAF:

METAR-TAF

Aeroporti :

Aeroporto di Tirana

Tirana, Albania

latitudine: 41-20N, longitudine: 019-47E, altezza: 89 m

Osservazione

Il bollettino è stato emesso 5 minuti fa, alle 12:50 UTC
Vento 2 kt da direzioni variabili
Temperature 18°C
Umidità 56%
Pressione 1016 hPa
Visibilità 10 km o più
Nuvoloso ad un'altezza di 4900 ft

METAR: LATI 061250Z VRB02KT 9999 BKN049 18/09 Q1016 NOSIG

Ora: 13:55 (12:55 UTC)

Previsione

Il bollettino è stato emesso 1 ora e 55 minuti fa, alle 11:00 UTC
Previsione valida dal 06 alle 12 UTC al 07 alle 12 UTC
Vento 5 kt da direzioni variabili
Visibilità 10 km o più
Nuvoloso ad un'altezza di 5000 ft

TAF: LATI 061100Z 0612/0712 VRB05KT 9999 BKN050 TX19/0712Z TN08/0705Z

Osservazioni e previsioni meteorologiche di più di 4000 aeroporti (messaggi METAR e TAF).

Le stazioni disponibili sono rappresentate dai dischi gialli e rossi sulla carta.

Puntare il mouse per vedere il nome della stazione.

Clicca sopra per visualizzare le osservazioni e previsioni meteorologiche.

Per cambiare la mappa : fare clic sui pulsanti verdi con una croce nera per ingrandire, il pulsante verde con un trattino per diminuire, o sulla freccia verde per le mappe adiacenti.


METAR-TAF: